Terminal Aerodrome Forecast
Issued by NWS

Home | Current Version | Previous Version | Text Only | Print | Product List | Glossary On
Versions: 1 2 3 4 5 6 7 8 9 10 11 12 13 14 15
886
FTUS46 KLOX 220540
TAFOXR
TAF
KOXR 220540Z 2206/2306 28007KT P6SM SCT200
     FM220900 03006KT P6SM SCT200
     FM221900 26012KT P6SM SCT040
     FM222200 27018G25KT P6SM SCT040
     FM230300 29012KT P6SM SCT040=

USA.gov is the U.S. government's official web portal to all federal, state and local government web resources and services.